sensor_id;sensor_type;location;lat;lon;timestamp;P1;durP1;ratioP1;P2;durP2;ratioP2
15082;SDS011;7640;53.116;6.878;2023-06-24T00:01:58;18.30;;;13.00;;
15082;SDS011;7640;53.116;6.878;2023-06-24T00:04:27;17.37;;;12.77;;
15082;SDS011;7640;53.116;6.878;2023-06-24T00:06:55;16.37;;;12.67;;
15082;SDS011;7640;53.116;6.878;2023-06-24T00:09:26;15.90;;;12.40;;
15082;SDS011;7640;53.116;6.878;2023-06-24T00:11:55;14.90;;;12.47;;
15082;SDS011;7640;53.116;6.878;2023-06-24T00:14:26;16.80;;;13.13;;
15082;SDS011;7640;53.116;6.878;2023-06-24T00:16:55;17.83;;;13.20;;
15082;SDS011;7640;53.116;6.878;2023-06-24T00:19:25;16.07;;;12.67;;
15082;SDS011;7640;53.116;6.878;2023-06-24T00:21:54;18.60;;;11.93;;
15082;SDS011;7640;53.116;6.878;2023-06-24T00:24:23;16.17;;;11.20;;
15082;SDS011;7640;53.116;6.878;2023-06-24T00:26:52;17.50;;;12.90;;
15082;SDS011;7640;53.116;6.878;2023-06-24T00:29:21;17.60;;;12.67;;
15082;SDS011;7640;53.116;6.878;2023-06-24T00:31:51;15.33;;;12.67;;
15082;SDS011;7640;53.116;6.878;2023-06-24T00:34:20;16.83;;;12.37;;
15082;SDS011;7640;53.116;6.878;2023-06-24T00:36:50;14.10;;;11.40;;
15082;SDS011;7640;53.116;6.878;2023-06-24T00:39:18;15.73;;;11.77;;
15082;SDS011;7640;53.116;6.878;2023-06-24T00:41:47;14.77;;;12.43;;
15082;SDS011;7640;53.116;6.878;2023-06-24T00:44:16;15.23;;;13.10;;
15082;SDS011;7640;53.116;6.878;2023-06-24T00:46:47;14.30;;;12.13;;
15082;SDS011;7640;53.116;6.878;2023-06-24T00:49:17;17.10;;;13.07;;
15082;SDS011;7640;53.116;6.878;2023-06-24T00:51:46;15.83;;;12.87;;
15082;SDS011;7640;53.116;6.878;2023-06-24T00:54:17;17.20;;;14.83;;
15082;SDS011;7640;53.116;6.878;2023-06-24T00:56:46;18.23;;;14.90;;
15082;SDS011;7640;53.116;6.878;2023-06-24T00:59:15;18.47;;;15.07;;
15082;SDS011;7640;53.116;6.878;2023-06-24T01:01:45;17.33;;;13.83;;
15082;SDS011;7640;53.116;6.878;2023-06-24T01:04:17;19.43;;;14.40;;
15082;SDS011;7640;53.116;6.878;2023-06-24T01:06:46;20.00;;;14.50;;
15082;SDS011;7640;53.116;6.878;2023-06-24T01:09:16;17.13;;;14.57;;
15082;SDS011;7640;53.116;6.878;2023-06-24T01:11:45;19.10;;;14.67;;
15082;SDS011;7640;53.116;6.878;2023-06-24T01:14:15;19.67;;;14.87;;
15082;SDS011;7640;53.116;6.878;2023-06-24T01:16:52;16.07;;;14.07;;
15082;SDS011;7640;53.116;6.878;2023-06-24T01:19:33;15.13;;;13.00;;
15082;SDS011;7640;53.116;6.878;2023-06-24T01:22:21;18.03;;;14.93;;
15082;SDS011;7640;53.116;6.878;2023-06-24T01:25:17;18.57;;;14.60;;
15082;SDS011;7640;53.116;6.878;2023-06-24T01:34:13;18.17;;;13.87;;
15082;SDS011;7640;53.116;6.878;2023-06-24T01:36:52;16.97;;;14.13;;
15082;SDS011;7640;53.116;6.878;2023-06-24T01:39:33;17.07;;;13.67;;
15082;SDS011;7640;53.116;6.878;2023-06-24T01:42:07;18.23;;;15.47;;
15082;SDS011;7640;53.116;6.878;2023-06-24T01:44:38;19.17;;;14.87;;
15082;SDS011;7640;53.116;6.878;2023-06-24T01:47:12;18.77;;;15.47;;
15082;SDS011;7640;53.116;6.878;2023-06-24T01:49:47;19.87;;;15.77;;
15082;SDS011;7640;53.116;6.878;2023-06-24T01:52:23;18.80;;;15.13;;
15082;SDS011;7640;53.116;6.878;2023-06-24T01:54:53;19.90;;;15.73;;
15082;SDS011;7640;53.116;6.878;2023-06-24T01:57:23;20.53;;;16.33;;
15082;SDS011;7640;53.116;6.878;2023-06-24T01:59:54;20.80;;;17.20;;
15082;SDS011;7640;53.116;6.878;2023-06-24T02:02:26;19.90;;;16.00;;
15082;SDS011;7640;53.116;6.878;2023-06-24T02:04:57;20.20;;;16.43;;
15082;SDS011;7640;53.116;6.878;2023-06-24T02:07:28;20.97;;;16.00;;
15082;SDS011;7640;53.116;6.878;2023-06-24T02:09:58;19.53;;;15.33;;
15082;SDS011;7640;53.116;6.878;2023-06-24T02:12:28;20.57;;;16.63;;
15082;SDS011;7640;53.116;6.878;2023-06-24T02:15:01;23.00;;;17.23;;
15082;SDS011;7640;53.116;6.878;2023-06-24T02:17:34;22.03;;;16.63;;
15082;SDS011;7640;53.116;6.878;2023-06-24T02:20:05;24.60;;;17.57;;
15082;SDS011;7640;53.116;6.878;2023-06-24T02:22:37;24.37;;;17.97;;
15082;SDS011;7640;53.116;6.878;2023-06-24T02:25:08;22.30;;;16.80;;
15082;SDS011;7640;53.116;6.878;2023-06-24T02:27:37;26.83;;;17.90;;
15082;SDS011;7640;53.116;6.878;2023-06-24T02:30:07;24.40;;;18.30;;
15082;SDS011;7640;53.116;6.878;2023-06-24T02:32:38;23.97;;;17.50;;
15082;SDS011;7640;53.116;6.878;2023-06-24T02:35:07;23.73;;;17.47;;
15082;SDS011;7640;53.116;6.878;2023-06-24T02:37:36;23.40;;;17.93;;
15082;SDS011;7640;53.116;6.878;2023-06-24T02:40:05;21.63;;;16.93;;
15082;SDS011;7640;53.116;6.878;2023-06-24T02:42:36;24.03;;;16.87;;
15082;SDS011;7640;53.116;6.878;2023-06-24T02:45:05;23.33;;;17.00;;
15082;SDS011;7640;53.116;6.878;2023-06-24T02:47:35;24.00;;;16.07;;
15082;SDS011;7640;53.116;6.878;2023-06-24T02:50:09;22.90;;;18.47;;
15082;SDS011;7640;53.116;6.878;2023-06-24T02:52:38;21.60;;;16.93;;
15082;SDS011;7640;53.116;6.878;2023-06-24T02:55:08;22.97;;;16.47;;
15082;SDS011;7640;53.116;6.878;2023-06-24T02:57:38;21.93;;;16.60;;
15082;SDS011;7640;53.116;6.878;2023-06-24T03:00:08;20.57;;;16.57;;
15082;SDS011;7640;53.116;6.878;2023-06-24T03:02:41;19.70;;;16.17;;
15082;SDS011;7640;53.116;6.878;2023-06-24T03:05:13;18.70;;;15.23;;
15082;SDS011;7640;53.116;6.878;2023-06-24T03:07:43;25.07;;;17.17;;
15082;SDS011;7640;53.116;6.878;2023-06-24T03:10:12;21.13;;;16.30;;
15082;SDS011;7640;53.116;6.878;2023-06-24T03:12:41;19.90;;;15.43;;
15082;SDS011;7640;53.116;6.878;2023-06-24T03:15:11;17.87;;;13.47;;
15082;SDS011;7640;53.116;6.878;2023-06-24T03:17:39;18.93;;;15.73;;
15082;SDS011;7640;53.116;6.878;2023-06-24T03:20:10;17.63;;;15.10;;
15082;SDS011;7640;53.116;6.878;2023-06-24T03:22:40;21.23;;;15.63;;
15082;SDS011;7640;53.116;6.878;2023-06-24T03:25:08;19.30;;;15.10;;
15082;SDS011;7640;53.116;6.878;2023-06-24T03:27:37;17.13;;;14.33;;
15082;SDS011;7640;53.116;6.878;2023-06-24T03:30:06;17.80;;;14.60;;
15082;SDS011;7640;53.116;6.878;2023-06-24T03:32:36;23.10;;;16.83;;
15082;SDS011;7640;53.116;6.878;2023-06-24T03:35:06;19.83;;;15.07;;
15082;SDS011;7640;53.116;6.878;2023-06-24T03:37:35;20.50;;;16.00;;
15082;SDS011;7640;53.116;6.878;2023-06-24T03:40:05;19.93;;;16.67;;
15082;SDS011;7640;53.116;6.878;2023-06-24T03:42:35;19.57;;;14.90;;
15082;SDS011;7640;53.116;6.878;2023-06-24T03:45:04;20.73;;;15.73;;
15082;SDS011;7640;53.116;6.878;2023-06-24T03:47:34;20.73;;;16.33;;
15082;SDS011;7640;53.116;6.878;2023-06-24T03:50:04;19.37;;;14.27;;
15082;SDS011;7640;53.116;6.878;2023-06-24T03:52:35;20.07;;;14.23;;
15082;SDS011;7640;53.116;6.878;2023-06-24T03:55:04;19.57;;;15.80;;
15082;SDS011;7640;53.116;6.878;2023-06-24T03:57:33;17.80;;;14.10;;
15082;SDS011;7640;53.116;6.878;2023-06-24T04:00:02;16.77;;;13.90;;
15082;SDS011;7640;53.116;6.878;2023-06-24T04:02:39;21.87;;;15.50;;
15082;SDS011;7640;53.116;6.878;2023-06-24T04:05:10;18.10;;;15.40;;
15082;SDS011;7640;53.116;6.878;2023-06-24T04:07:38;16.27;;;13.33;;
15082;SDS011;7640;53.116;6.878;2023-06-24T04:10:08;18.77;;;14.27;;
15082;SDS011;7640;53.116;6.878;2023-06-24T04:12:38;19.57;;;14.57;;
15082;SDS011;7640;53.116;6.878;2023-06-24T04:15:06;19.70;;;14.83;;
15082;SDS011;7640;53.116;6.878;2023-06-24T04:17:36;18.40;;;14.20;;
15082;SDS011;7640;53.116;6.878;2023-06-24T04:20:05;17.10;;;14.10;;
15082;SDS011;7640;53.116;6.878;2023-06-24T04:22:38;17.57;;;13.30;;
15082;SDS011;7640;53.116;6.878;2023-06-24T04:25:08;17.43;;;13.23;;
15082;SDS011;7640;53.116;6.878;2023-06-24T04:27:38;16.57;;;13.63;;
15082;SDS011;7640;53.116;6.878;2023-06-24T04:30:07;17.67;;;12.93;;
15082;SDS011;7640;53.116;6.878;2023-06-24T04:32:37;17.23;;;12.90;;
15082;SDS011;7640;53.116;6.878;2023-06-24T04:35:06;18.63;;;12.57;;
15082;SDS011;7640;53.116;6.878;2023-06-24T04:37:35;14.60;;;12.20;;
15082;SDS011;7640;53.116;6.878;2023-06-24T04:40:06;16.07;;;13.20;;
15082;SDS011;7640;53.116;6.878;2023-06-24T04:42:36;15.77;;;12.77;;
15082;SDS011;7640;53.116;6.878;2023-06-24T04:45:05;18.13;;;13.20;;
15082;SDS011;7640;53.116;6.878;2023-06-24T04:47:35;16.60;;;12.83;;
15082;SDS011;7640;53.116;6.878;2023-06-24T04:50:03;14.30;;;11.80;;
15082;SDS011;7640;53.116;6.878;2023-06-24T04:52:36;16.60;;;12.57;;
15082;SDS011;7640;53.116;6.878;2023-06-24T04:55:07;15.27;;;12.07;;
15082;SDS011;7640;53.116;6.878;2023-06-24T04:57:36;13.23;;;11.83;;
15082;SDS011;7640;53.116;6.878;2023-06-24T05:00:05;15.43;;;12.00;;
15082;SDS011;7640;53.116;6.878;2023-06-24T05:02:36;13.77;;;11.67;;
15082;SDS011;7640;53.116;6.878;2023-06-24T05:05:04;13.47;;;11.37;;
15082;SDS011;7640;53.116;6.878;2023-06-24T05:07:34;13.73;;;11.40;;
15082;SDS011;7640;53.116;6.878;2023-06-24T05:10:03;14.50;;;10.90;;
15082;SDS011;7640;53.116;6.878;2023-06-24T05:12:33;13.03;;;10.93;;
15082;SDS011;7640;53.116;6.878;2023-06-24T05:15:02;12.83;;;11.40;;
15082;SDS011;7640;53.116;6.878;2023-06-24T05:17:32;11.87;;;10.37;;
15082;SDS011;7640;53.116;6.878;2023-06-24T05:20:01;13.90;;;10.47;;
15082;SDS011;7640;53.116;6.878;2023-06-24T05:22:30;12.37;;;10.53;;
15082;SDS011;7640;53.116;6.878;2023-06-24T05:24:59;13.27;;;10.10;;
15082;SDS011;7640;53.116;6.878;2023-06-24T05:27:29;11.37;;;10.17;;
15082;SDS011;7640;53.116;6.878;2023-06-24T05:29:59;12.80;;;9.50;;
15082;SDS011;7640;53.116;6.878;2023-06-24T05:32:29;12.27;;;10.23;;
15082;SDS011;7640;53.116;6.878;2023-06-24T05:34:58;12.37;;;9.70;;
15082;SDS011;7640;53.116;6.878;2023-06-24T05:37:27;12.63;;;10.07;;
15082;SDS011;7640;53.116;6.878;2023-06-24T05:39:56;11.60;;;9.60;;
15082;SDS011;7640;53.116;6.878;2023-06-24T05:42:27;12.70;;;10.33;;
15082;SDS011;7640;53.116;6.878;2023-06-24T05:45:01;11.37;;;10.07;;
15082;SDS011;7640;53.116;6.878;2023-06-24T05:47:30;13.40;;;11.20;;
15082;SDS011;7640;53.116;6.878;2023-06-24T05:49:59;12.00;;;10.50;;
15082;SDS011;7640;53.116;6.878;2023-06-24T05:52:30;14.17;;;10.17;;
15082;SDS011;7640;53.116;6.878;2023-06-24T05:54:59;12.40;;;10.77;;
15082;SDS011;7640;53.116;6.878;2023-06-24T05:57:28;11.83;;;10.43;;
15082;SDS011;7640;53.116;6.878;2023-06-24T05:59:59;13.13;;;10.27;;
15082;SDS011;7640;53.116;6.878;2023-06-24T06:02:32;11.63;;;10.40;;
15082;SDS011;7640;53.116;6.878;2023-06-24T06:05:02;12.07;;;10.43;;
15082;SDS011;7640;53.116;6.878;2023-06-24T06:07:31;13.47;;;10.73;;
15082;SDS011;7640;53.116;6.878;2023-06-24T06:10:01;12.10;;;10.77;;
15082;SDS011;7640;53.116;6.878;2023-06-24T06:12:30;12.70;;;10.00;;
15082;SDS011;7640;53.116;6.878;2023-06-24T06:14:59;13.13;;;10.63;;
15082;SDS011;7640;53.116;6.878;2023-06-24T06:17:29;12.63;;;10.13;;
15082;SDS011;7640;53.116;6.878;2023-06-24T06:20:00;11.70;;;10.03;;
15082;SDS011;7640;53.116;6.878;2023-06-24T06:22:28;11.37;;;10.03;;
15082;SDS011;7640;53.116;6.878;2023-06-24T06:24:58;10.23;;;8.87;;
15082;SDS011;7640;53.116;6.878;2023-06-24T06:27:27;10.77;;;9.67;;
15082;SDS011;7640;53.116;6.878;2023-06-24T06:29:56;11.10;;;9.07;;
15082;SDS011;7640;53.116;6.878;2023-06-24T06:32:26;10.67;;;9.30;;
15082;SDS011;7640;53.116;6.878;2023-06-24T06:34:57;10.37;;;9.03;;
15082;SDS011;7640;53.116;6.878;2023-06-24T06:37:26;10.77;;;9.30;;
15082;SDS011;7640;53.116;6.878;2023-06-24T06:39:55;10.57;;;8.77;;
15082;SDS011;7640;53.116;6.878;2023-06-24T06:42:23;9.83;;;8.83;;
15082;SDS011;7640;53.116;6.878;2023-06-24T06:44:52;10.50;;;9.43;;
15082;SDS011;7640;53.116;6.878;2023-06-24T06:47:20;10.23;;;9.13;;
15082;SDS011;7640;53.116;6.878;2023-06-24T06:49:51;11.03;;;9.00;;
15082;SDS011;7640;53.116;6.878;2023-06-24T06:52:20;9.40;;;8.10;;
15082;SDS011;7640;53.116;6.878;2023-06-24T06:54:49;9.05;;;8.15;;
15082;SDS011;7640;53.116;6.878;2023-06-24T06:57:17;8.90;;;8.00;;
15082;SDS011;7640;53.116;6.878;2023-06-24T06:59:46;9.35;;;8.40;;
15082;SDS011;7640;53.116;6.878;2023-06-24T07:02:16;9.57;;;8.57;;
15082;SDS011;7640;53.116;6.878;2023-06-24T07:04:46;10.63;;;8.88;;
15082;SDS011;7640;53.116;6.878;2023-06-24T07:07:18;9.02;;;8.23;;
15082;SDS011;7640;53.116;6.878;2023-06-24T07:09:47;8.80;;;7.90;;
15082;SDS011;7640;53.116;6.878;2023-06-24T07:12:15;9.73;;;8.73;;
15082;SDS011;7640;53.116;6.878;2023-06-24T07:14:44;9.80;;;8.80;;
15082;SDS011;7640;53.116;6.878;2023-06-24T07:17:13;10.98;;;8.93;;
15082;SDS011;7640;53.116;6.878;2023-06-24T07:19:41;8.85;;;7.90;;
15082;SDS011;7640;53.116;6.878;2023-06-24T07:22:10;9.57;;;8.57;;
15082;SDS011;7640;53.116;6.878;2023-06-24T07:24:40;10.15;;;8.48;;
15082;SDS011;7640;53.116;6.878;2023-06-24T07:27:09;9.73;;;8.63;;
15082;SDS011;7640;53.116;6.878;2023-06-24T07:29:38;10.90;;;9.02;;
15082;SDS011;7640;53.116;6.878;2023-06-24T07:32:08;10.75;;;9.10;;
15082;SDS011;7640;53.116;6.878;2023-06-24T07:34:36;8.90;;;8.07;;
15082;SDS011;7640;53.116;6.878;2023-06-24T07:37:05;9.10;;;8.20;;
15082;SDS011;7640;53.116;6.878;2023-06-24T07:39:50;9.30;;;8.15;;
15082;SDS011;7640;53.116;6.878;2023-06-24T07:42:19;9.32;;;8.38;;
15082;SDS011;7640;53.116;6.878;2023-06-24T07:44:48;9.23;;;8.32;;
15082;SDS011;7640;53.116;6.878;2023-06-24T07:47:17;9.70;;;8.68;;
15082;SDS011;7640;53.116;6.878;2023-06-24T07:49:46;9.52;;;8.68;;
15082;SDS011;7640;53.116;6.878;2023-06-24T07:52:15;14.13;;;10.18;;
15082;SDS011;7640;53.116;6.878;2023-06-24T07:54:44;10.73;;;9.63;;
15082;SDS011;7640;53.116;6.878;2023-06-24T07:57:14;10.43;;;9.02;;
15082;SDS011;7640;53.116;6.878;2023-06-24T07:59:42;11.02;;;9.60;;
15082;SDS011;7640;53.116;6.878;2023-06-24T08:14:37;10.13;;;8.98;;
15082;SDS011;7640;53.116;6.878;2023-06-24T08:17:05;11.82;;;8.48;;
15082;SDS011;7640;53.116;6.878;2023-06-24T08:19:33;12.32;;;9.15;;
15082;SDS011;7640;53.116;6.878;2023-06-24T08:22:02;10.88;;;9.77;;
15082;SDS011;7640;53.116;6.878;2023-06-24T08:24:31;10.57;;;9.13;;
15082;SDS011;7640;53.116;6.878;2023-06-24T08:27:00;9.23;;;8.32;;
15082;SDS011;7640;53.116;6.878;2023-06-24T08:29:28;10.75;;;8.32;;
15082;SDS011;7640;53.116;6.878;2023-06-24T08:31:58;8.45;;;7.40;;
15082;SDS011;7640;53.116;6.878;2023-06-24T08:34:26;10.52;;;7.90;;
15082;SDS011;7640;53.116;6.878;2023-06-24T08:36:55;7.35;;;6.63;;
15082;SDS011;7640;53.116;6.878;2023-06-24T08:39:24;9.05;;;7.38;;
15082;SDS011;7640;53.116;6.878;2023-06-24T08:41:52;10.15;;;7.88;;
15082;SDS011;7640;53.116;6.878;2023-06-24T08:44:21;9.57;;;8.38;;
15082;SDS011;7640;53.116;6.878;2023-06-24T08:46:51;8.32;;;7.55;;
15082;SDS011;7640;53.116;6.878;2023-06-24T08:49:25;9.35;;;8.45;;
15082;SDS011;7640;53.116;6.878;2023-06-24T08:52:00;8.82;;;7.85;;
15082;SDS011;7640;53.116;6.878;2023-06-24T08:54:34;8.77;;;7.72;;
15082;SDS011;7640;53.116;6.878;2023-06-24T08:57:05;7.82;;;7.13;;
15082;SDS011;7640;53.116;6.878;2023-06-24T08:59:40;7.50;;;6.80;;
15082;SDS011;7640;53.116;6.878;2023-06-24T09:02:10;6.75;;;6.05;;
15082;SDS011;7640;53.116;6.878;2023-06-24T09:04:41;7.50;;;6.15;;
15082;SDS011;7640;53.116;6.878;2023-06-24T09:07:10;6.68;;;6.07;;
15082;SDS011;7640;53.116;6.878;2023-06-24T09:09:43;6.93;;;5.97;;
15082;SDS011;7640;53.116;6.878;2023-06-24T09:12:13;8.75;;;7.00;;
15082;SDS011;7640;53.116;6.878;2023-06-24T09:14:42;8.80;;;6.15;;
15082;SDS011;7640;53.116;6.878;2023-06-24T09:17:17;7.30;;;6.38;;
15082;SDS011;7640;53.116;6.878;2023-06-24T09:19:50;7.25;;;6.53;;
15082;SDS011;7640;53.116;6.878;2023-06-24T09:22:19;6.45;;;5.82;;
15082;SDS011;7640;53.116;6.878;2023-06-24T09:24:48;7.75;;;6.68;;
15082;SDS011;7640;53.116;6.878;2023-06-24T09:27:17;6.18;;;5.57;;
15082;SDS011;7640;53.116;6.878;2023-06-24T09:29:49;5.85;;;5.25;;
15082;SDS011;7640;53.116;6.878;2023-06-24T09:32:18;6.13;;;5.35;;
15082;SDS011;7640;53.116;6.878;2023-06-24T09:34:47;6.07;;;4.60;;
15082;SDS011;7640;53.116;6.878;2023-06-24T09:37:22;6.97;;;5.35;;
15082;SDS011;7640;53.116;6.878;2023-06-24T09:39:51;5.72;;;5.13;;
15082;SDS011;7640;53.116;6.878;2023-06-24T09:42:21;5.43;;;4.88;;
15082;SDS011;7640;53.116;6.878;2023-06-24T09:44:53;5.18;;;4.68;;
15082;SDS011;7640;53.116;6.878;2023-06-24T09:47:22;6.90;;;4.50;;
15082;SDS011;7640;53.116;6.878;2023-06-24T09:49:53;4.90;;;4.40;;
15082;SDS011;7640;53.116;6.878;2023-06-24T09:52:23;6.03;;;4.82;;
15082;SDS011;7640;53.116;6.878;2023-06-24T09:54:53;6.00;;;5.32;;
15082;SDS011;7640;53.116;6.878;2023-06-24T09:57:27;5.85;;;5.03;;
15082;SDS011;7640;53.116;6.878;2023-06-24T09:59:59;5.47;;;5.00;;
15082;SDS011;7640;53.116;6.878;2023-06-24T10:02:27;7.55;;;5.20;;
15082;SDS011;7640;53.116;6.878;2023-06-24T10:04:58;6.47;;;5.13;;
15082;SDS011;7640;53.116;6.878;2023-06-24T10:07:29;5.47;;;4.93;;
15082;SDS011;7640;53.116;6.878;2023-06-24T10:10:01;5.43;;;4.90;;
15082;SDS011;7640;53.116;6.878;2023-06-24T10:12:31;6.15;;;4.63;;
15082;SDS011;7640;53.116;6.878;2023-06-24T10:14:59;5.30;;;4.80;;
15082;SDS011;7640;53.116;6.878;2023-06-24T10:17:29;8.30;;;5.78;;
15082;SDS011;7640;53.116;6.878;2023-06-24T10:19:58;5.95;;;5.38;;
15082;SDS011;7640;53.116;6.878;2023-06-24T10:22:34;6.45;;;5.10;;
15082;SDS011;7640;53.116;6.878;2023-06-24T10:25:05;6.07;;;5.47;;
15082;SDS011;7640;53.116;6.878;2023-06-24T10:27:39;5.68;;;5.07;;
15082;SDS011;7640;53.116;6.878;2023-06-24T10:30:16;7.13;;;5.57;;
15082;SDS011;7640;53.116;6.878;2023-06-24T10:32:51;7.40;;;5.72;;
15082;SDS011;7640;53.116;6.878;2023-06-24T10:35:22;6.00;;;4.53;;
15082;SDS011;7640;53.116;6.878;2023-06-24T10:37:57;5.03;;;4.57;;
15082;SDS011;7640;53.116;6.878;2023-06-24T10:40:34;5.07;;;4.57;;
15082;SDS011;7640;53.116;6.878;2023-06-24T10:45:54;4.88;;;4.43;;
15082;SDS011;7640;53.116;6.878;2023-06-24T10:48:24;5.07;;;4.65;;
15082;SDS011;7640;53.116;6.878;2023-06-24T10:50:53;6.07;;;5.18;;
15082;SDS011;7640;53.116;6.878;2023-06-24T10:53:24;5.20;;;4.70;;
15082;SDS011;7640;53.116;6.878;2023-06-24T10:55:53;5.82;;;4.50;;
15082;SDS011;7640;53.116;6.878;2023-06-24T10:58:25;6.15;;;5.00;;
15082;SDS011;7640;53.116;6.878;2023-06-24T11:01:05;6.95;;;4.40;;
15082;SDS011;7640;53.116;6.878;2023-06-24T11:03:35;5.28;;;4.57;;
15082;SDS011;7640;53.116;6.878;2023-06-24T11:06:07;6.15;;;4.78;;
15082;SDS011;7640;53.116;6.878;2023-06-24T11:08:44;5.80;;;5.22;;
15082;SDS011;7640;53.116;6.878;2023-06-24T11:11:18;5.22;;;4.75;;
15082;SDS011;7640;53.116;6.878;2023-06-24T11:13:49;5.05;;;4.60;;
15082;SDS011;7640;53.116;6.878;2023-06-24T11:16:20;4.95;;;4.25;;
15082;SDS011;7640;53.116;6.878;2023-06-24T11:18:49;6.07;;;5.00;;
15082;SDS011;7640;53.116;6.878;2023-06-24T11:21:17;5.20;;;4.60;;
15082;SDS011;7640;53.116;6.878;2023-06-24T11:23:47;5.10;;;4.60;;
15082;SDS011;7640;53.116;6.878;2023-06-24T11:26:16;5.18;;;4.68;;
15082;SDS011;7640;53.116;6.878;2023-06-24T11:28:47;5.25;;;4.40;;
15082;SDS011;7640;53.116;6.878;2023-06-24T11:31:16;5.18;;;4.68;;
15082;SDS011;7640;53.116;6.878;2023-06-24T11:33:47;5.05;;;4.60;;
15082;SDS011;7640;53.116;6.878;2023-06-24T11:36:17;5.75;;;4.70;;
15082;SDS011;7640;53.116;6.878;2023-06-24T11:38:45;4.60;;;4.28;;
15082;SDS011;7640;53.116;6.878;2023-06-24T11:41:16;4.95;;;4.45;;
15082;SDS011;7640;53.116;6.878;2023-06-24T11:43:49;4.78;;;3.90;;
15082;SDS011;7640;53.116;6.878;2023-06-24T11:46:21;6.07;;;4.25;;
15082;SDS011;7640;53.116;6.878;2023-06-24T11:48:51;4.85;;;4.45;;
15082;SDS011;7640;53.116;6.878;2023-06-24T11:51:22;4.82;;;4.43;;
15082;SDS011;7640;53.116;6.878;2023-06-24T11:53:52;4.50;;;3.85;;
15082;SDS011;7640;53.116;6.878;2023-06-24T11:56:33;4.88;;;4.43;;
15082;SDS011;7640;53.116;6.878;2023-06-24T11:59:03;4.43;;;4.05;;
15082;SDS011;7640;53.116;6.878;2023-06-24T12:01:33;5.18;;;4.13;;
15082;SDS011;7640;53.116;6.878;2023-06-24T12:04:09;4.72;;;4.07;;
15082;SDS011;7640;53.116;6.878;2023-06-24T12:06:39;4.10;;;3.75;;
15082;SDS011;7640;53.116;6.878;2023-06-24T12:09:09;4.15;;;3.75;;
15082;SDS011;7640;53.116;6.878;2023-06-24T12:11:39;4.00;;;3.60;;
15082;SDS011;7640;53.116;6.878;2023-06-24T12:14:07;4.78;;;4.00;;
15082;SDS011;7640;53.116;6.878;2023-06-24T12:16:37;4.45;;;3.88;;
15082;SDS011;7640;53.116;6.878;2023-06-24T12:19:07;4.25;;;3.85;;
15082;SDS011;7640;53.116;6.878;2023-06-24T12:21:36;3.92;;;3.63;;
15082;SDS011;7640;53.116;6.878;2023-06-24T12:24:05;4.20;;;3.80;;
15082;SDS011;7640;53.116;6.878;2023-06-24T12:26:36;4.72;;;3.40;;
15082;SDS011;7640;53.116;6.878;2023-06-24T12:29:05;4.63;;;3.95;;
15082;SDS011;7640;53.116;6.878;2023-06-24T12:31:34;5.13;;;3.80;;
15082;SDS011;7640;53.116;6.878;2023-06-24T12:34:02;5.22;;;3.47;;
15082;SDS011;7640;53.116;6.878;2023-06-24T12:36:31;4.22;;;3.83;;
15082;SDS011;7640;53.116;6.878;2023-06-24T12:39:00;4.47;;;4.00;;
15082;SDS011;7640;53.116;6.878;2023-06-24T12:41:29;4.28;;;3.88;;
15082;SDS011;7640;53.116;6.878;2023-06-24T12:44:01;4.25;;;3.80;;
15082;SDS011;7640;53.116;6.878;2023-06-24T12:46:29;4.47;;;3.67;;
15082;SDS011;7640;53.116;6.878;2023-06-24T12:48:58;4.57;;;3.97;;
15082;SDS011;7640;53.116;6.878;2023-06-24T12:51:26;4.75;;;3.45;;
15082;SDS011;7640;53.116;6.878;2023-06-24T12:53:55;4.35;;;4.05;;
15082;SDS011;7640;53.116;6.878;2023-06-24T12:56:23;3.97;;;3.60;;
15082;SDS011;7640;53.116;6.878;2023-06-24T12:58:52;4.32;;;4.00;;
15082;SDS011;7640;53.116;6.878;2023-06-24T13:01:22;4.28;;;3.97;;
15082;SDS011;7640;53.116;6.878;2023-06-24T13:03:50;3.88;;;3.58;;
15082;SDS011;7640;53.116;6.878;2023-06-24T13:06:19;4.32;;;3.85;;
15082;SDS011;7640;53.116;6.878;2023-06-24T13:08:47;6.05;;;4.13;;
15082;SDS011;7640;53.116;6.878;2023-06-24T13:11:16;5.05;;;4.13;;
15082;SDS011;7640;53.116;6.878;2023-06-24T13:13:44;4.82;;;4.30;;
15082;SDS011;7640;53.116;6.878;2023-06-24T13:16:13;4.35;;;3.97;;
15082;SDS011;7640;53.116;6.878;2023-06-24T13:18:43;5.50;;;4.30;;
15082;SDS011;7640;53.116;6.878;2023-06-24T13:21:11;4.47;;;4.07;;
15082;SDS011;7640;53.116;6.878;2023-06-24T13:23:41;4.53;;;4.13;;
15082;SDS011;7640;53.116;6.878;2023-06-24T13:26:10;5.22;;;4.47;;
15082;SDS011;7640;53.116;6.878;2023-06-24T13:28:39;4.18;;;3.80;;
15082;SDS011;7640;53.116;6.878;2023-06-24T13:31:07;4.43;;;4.00;;
15082;SDS011;7640;53.116;6.878;2023-06-24T13:33:36;5.05;;;4.05;;
15082;SDS011;7640;53.116;6.878;2023-06-24T13:36:07;5.05;;;4.13;;
15082;SDS011;7640;53.116;6.878;2023-06-24T13:38:41;4.30;;;3.90;;
15082;SDS011;7640;53.116;6.878;2023-06-24T13:41:09;4.50;;;4.10;;
15082;SDS011;7640;53.116;6.878;2023-06-24T13:43:38;4.32;;;3.90;;
15082;SDS011;7640;53.116;6.878;2023-06-24T13:46:07;4.53;;;4.10;;
15082;SDS011;7640;53.116;6.878;2023-06-24T13:48:37;5.00;;;3.95;;
15082;SDS011;7640;53.116;6.878;2023-06-24T13:51:07;4.15;;;3.85;;
15082;SDS011;7640;53.116;6.878;2023-06-24T13:53:36;5.25;;;4.20;;
15082;SDS011;7640;53.116;6.878;2023-06-24T13:56:05;5.68;;;4.57;;
15082;SDS011;7640;53.116;6.878;2023-06-24T13:58:34;4.95;;;4.03;;
15082;SDS011;7640;53.116;6.878;2023-06-24T14:01:02;4.82;;;4.32;;
15082;SDS011;7640;53.116;6.878;2023-06-24T14:03:31;4.32;;;3.92;;
15082;SDS011;7640;53.116;6.878;2023-06-24T14:05:59;3.92;;;3.63;;
15082;SDS011;7640;53.116;6.878;2023-06-24T14:08:30;4.95;;;4.40;;
15082;SDS011;7640;53.116;6.878;2023-06-24T14:11:00;4.72;;;4.32;;
15082;SDS011;7640;53.116;6.878;2023-06-24T14:13:30;4.75;;;4.00;;
15082;SDS011;7640;53.116;6.878;2023-06-24T14:15:59;5.65;;;4.70;;
15082;SDS011;7640;53.116;6.878;2023-06-24T14:18:27;11.57;;;7.80;;
15082;SDS011;7640;53.116;6.878;2023-06-24T14:20:58;9.90;;;8.32;;
15082;SDS011;7640;53.116;6.878;2023-06-24T14:23:29;9.57;;;7.45;;
15082;SDS011;7640;53.116;6.878;2023-06-24T14:25:59;10.38;;;8.00;;
15082;SDS011;7640;53.116;6.878;2023-06-24T14:28:27;9.77;;;7.70;;
15082;SDS011;7640;53.116;6.878;2023-06-24T14:30:56;11.10;;;8.75;;
15082;SDS011;7640;53.116;6.878;2023-06-24T14:33:25;8.98;;;7.88;;
15082;SDS011;7640;53.116;6.878;2023-06-24T14:35:55;8.95;;;7.40;;
15082;SDS011;7640;53.116;6.878;2023-06-24T14:38:23;8.45;;;7.55;;
15082;SDS011;7640;53.116;6.878;2023-06-24T14:40:56;8.70;;;6.68;;
15082;SDS011;7640;53.116;6.878;2023-06-24T14:43:25;6.85;;;6.15;;
15082;SDS011;7640;53.116;6.878;2023-06-24T14:45:53;10.18;;;6.50;;
15082;SDS011;7640;53.116;6.878;2023-06-24T14:48:24;7.43;;;6.70;;
15082;SDS011;7640;53.116;6.878;2023-06-24T14:50:52;10.32;;;6.43;;
15082;SDS011;7640;53.116;6.878;2023-06-24T14:53:21;6.45;;;5.70;;
15082;SDS011;7640;53.116;6.878;2023-06-24T14:55:49;21.42;;;19.20;;
15082;SDS011;7640;53.116;6.878;2023-06-24T14:58:19;43.92;;;39.20;;
15082;SDS011;7640;53.116;6.878;2023-06-24T15:00:47;11.40;;;10.20;;
15082;SDS011;7640;53.116;6.878;2023-06-24T15:03:16;10.65;;;9.57;;
15082;SDS011;7640;53.116;6.878;2023-06-24T15:05:45;11.82;;;9.82;;
15082;SDS011;7640;53.116;6.878;2023-06-24T15:08:13;26.65;;;23.40;;
15082;SDS011;7640;53.116;6.878;2023-06-24T15:10:42;37.13;;;33.58;;
15082;SDS011;7640;53.116;6.878;2023-06-24T15:13:10;7.13;;;6.35;;
15082;SDS011;7640;53.116;6.878;2023-06-24T15:15:40;8.90;;;7.15;;
15082;SDS011;7640;53.116;6.878;2023-06-24T15:18:09;8.02;;;7.18;;
15082;SDS011;7640;53.116;6.878;2023-06-24T15:20:40;8.15;;;5.90;;
15082;SDS011;7640;53.116;6.878;2023-06-24T15:23:09;7.18;;;6.47;;
15082;SDS011;7640;53.116;6.878;2023-06-24T15:25:37;8.00;;;6.00;;
15082;SDS011;7640;53.116;6.878;2023-06-24T15:28:06;18.90;;;16.95;;